Dusty Bend, South Carolina
Current Conditions -  °F | °C
As of 11:55 AM on Monday 26 Jan 2015 (Local Time) from KCDN Reporting Station
Clear Clear  
Wind Chill: 54°   Ceiling: Unl
Heat Index: 54°   Visibility: 10mi
Dew Point: 39°   Wind: 13mph
Humidity: 58%   Direction: 280°W
Pressure: 29.66"   Gusts: 17mph
Location:  34.2974°N, 80.6089°W
Report Text: KCDN 261655Z AUTO 28011G15KT 10SM CLR 12/04 A2966 RMK AO2 TSNO
Loading
Personal Weather Stations






























Interactive Weather Map New forecast layout! Learn more

10-Day Weather Forecast

Advertisements
Track Severe Weather on mobile